sensor_id;sensor_type;location;lat;lon;timestamp;pressure;altitude;pressure_sealevel;temperature;humidity
19789;BME280;10054;59.332;18.244;2023-01-08T00:01:41;100683.00;;;1.24;100.00
19789;BME280;10054;59.332;18.244;2023-01-08T00:04:10;100682.41;;;1.30;100.00
19789;BME280;10054;59.332;18.244;2023-01-08T00:06:39;100675.39;;;1.34;100.00
19789;BME280;10054;59.332;18.244;2023-01-08T00:09:09;100669.78;;;1.33;100.00
19789;BME280;10054;59.332;18.244;2023-01-08T00:11:39;100658.16;;;1.30;100.00
19789;BME280;10054;59.332;18.244;2023-01-08T00:14:07;100653.45;;;1.28;100.00
19789;BME280;10054;59.332;18.244;2023-01-08T00:16:36;100640.97;;;1.24;100.00
19789;BME280;10054;59.332;18.244;2023-01-08T00:19:06;100643.68;;;1.20;100.00
19789;BME280;10054;59.332;18.244;2023-01-08T00:21:35;100633.32;;;1.18;100.00
19789;BME280;10054;59.332;18.244;2023-01-08T00:24:04;100632.88;;;1.19;100.00
19789;BME280;10054;59.332;18.244;2023-01-08T00:26:33;100634.17;;;1.19;100.00
19789;BME280;10054;59.332;18.244;2023-01-08T00:29:02;100630.69;;;1.20;100.00
19789;BME280;10054;59.332;18.244;2023-01-08T00:31:31;100627.20;;;1.21;100.00
19789;BME280;10054;59.332;18.244;2023-01-08T00:34:00;100625.90;;;1.21;100.00
19789;BME280;10054;59.332;18.244;2023-01-08T00:36:29;100623.27;;;1.22;100.00
19789;BME280;10054;59.332;18.244;2023-01-08T00:38:58;100613.28;;;1.23;100.00
19789;BME280;10054;59.332;18.244;2023-01-08T00:41:27;100601.95;;;1.26;100.00
19789;BME280;10054;59.332;18.244;2023-01-08T00:43:56;100597.61;;;1.26;100.00
19789;BME280;10054;59.332;18.244;2023-01-08T00:46:25;100598.43;;;1.28;100.00
19789;BME280;10054;59.332;18.244;2023-01-08T00:48:54;100604.48;;;1.29;100.00
19789;BME280;10054;59.332;18.244;2023-01-08T00:51:24;100604.00;;;1.31;100.00
19789;BME280;10054;59.332;18.244;2023-01-08T00:53:53;100587.11;;;1.31;100.00
19789;BME280;10054;59.332;18.244;2023-01-08T00:56:22;100588.41;;;1.31;100.00
19789;BME280;10054;59.332;18.244;2023-01-08T00:58:50;100575.78;;;1.34;100.00
19789;BME280;10054;59.332;18.244;2023-01-08T01:01:19;100577.81;;;1.39;100.00
19789;BME280;10054;59.332;18.244;2023-01-08T01:03:48;100574.66;;;1.44;100.00
19789;BME280;10054;59.332;18.244;2023-01-08T01:06:17;100572.31;;;1.49;100.00
19789;BME280;10054;59.332;18.244;2023-01-08T01:08:45;100581.85;;;1.49;100.00
19789;BME280;10054;59.332;18.244;2023-01-08T01:11:23;100573.77;;;1.45;100.00
19789;BME280;10054;59.332;18.244;2023-01-08T01:13:54;100569.98;;;1.40;100.00
19789;BME280;10054;59.332;18.244;2023-01-08T01:16:24;100575.70;;;1.37;100.00
19789;BME280;10054;59.332;18.244;2023-01-08T01:18:53;100558.81;;;1.37;100.00
19789;BME280;10054;59.332;18.244;2023-01-08T01:21:28;100559.25;;;1.36;100.00
19789;BME280;10054;59.332;18.244;2023-01-08T01:23:59;100558.84;;;1.35;100.00
19789;BME280;10054;59.332;18.244;2023-01-08T01:26:29;100551.09;;;1.34;100.00
19789;BME280;10054;59.332;18.244;2023-01-08T01:28:58;100548.49;;;1.34;100.00
19789;BME280;10054;59.332;18.244;2023-01-08T01:31:29;100542.40;;;1.35;100.00
19789;BME280;10054;59.332;18.244;2023-01-08T01:33:58;100542.36;;;1.36;100.00
19789;BME280;10054;59.332;18.244;2023-01-08T01:36:27;100538.02;;;1.37;100.00
19789;BME280;10054;59.332;18.244;2023-01-08T01:38:56;100532.81;;;1.37;100.00
19789;BME280;10054;59.332;18.244;2023-01-08T01:41:37;100532.37;;;1.37;100.00
19789;BME280;10054;59.332;18.244;2023-01-08T01:47:05;100526.65;;;1.41;100.00
19789;BME280;10054;59.332;18.244;2023-01-08T01:49:30;100522.75;;;1.41;100.00
19789;BME280;10054;59.332;18.244;2023-01-08T01:52:01;100515.80;;;1.41;100.00
19789;BME280;10054;59.332;18.244;2023-01-08T01:54:32;100515.23;;;1.46;100.00
19789;BME280;10054;59.332;18.244;2023-01-08T01:57:03;100509.31;;;1.56;100.00
19789;BME280;10054;59.332;18.244;2023-01-08T01:59:32;100510.89;;;1.61;100.00
19789;BME280;10054;59.332;18.244;2023-01-08T02:02:01;100505.16;;;1.65;100.00
19789;BME280;10054;59.332;18.244;2023-01-08T02:04:30;100505.24;;;1.62;100.00
19789;BME280;10054;59.332;18.244;2023-01-08T02:07:18;100502.81;;;1.56;100.00
19789;BME280;10054;59.332;18.244;2023-01-08T02:09:58;100499.48;;;1.51;100.00
19789;BME280;10054;59.332;18.244;2023-01-08T02:15:22;100492.38;;;1.43;100.00
19789;BME280;10054;59.332;18.244;2023-01-08T02:18:05;100490.22;;;1.42;100.00
19789;BME280;10054;59.332;18.244;2023-01-08T02:20:40;100488.43;;;1.44;100.00
19789;BME280;10054;59.332;18.244;2023-01-08T02:23:36;100489.23;;;1.46;100.00
19789;BME280;10054;59.332;18.244;2023-01-08T02:26:18;100487.94;;;1.46;100.00
19789;BME280;10054;59.332;18.244;2023-01-08T02:29:15;100484.00;;;1.48;100.00
19789;BME280;10054;59.332;18.244;2023-01-08T02:31:44;100481.41;;;1.48;100.00
19789;BME280;10054;59.332;18.244;2023-01-08T02:34:14;100479.17;;;1.49;100.00
19789;BME280;10054;59.332;18.244;2023-01-08T02:36:44;100489.13;;;1.49;100.00
19789;BME280;10054;59.332;18.244;2023-01-08T02:39:35;100472.63;;;1.50;100.00
19789;BME280;10054;59.332;18.244;2023-01-08T02:45:10;100467.31;;;1.55;100.00
19789;BME280;10054;59.332;18.244;2023-01-08T02:47:52;100465.52;;;1.57;100.00
19789;BME280;10054;59.332;18.244;2023-01-08T02:50:30;100462.02;;;1.58;100.00
19789;BME280;10054;59.332;18.244;2023-01-08T02:53:13;100452.88;;;1.59;100.00
19789;BME280;10054;59.332;18.244;2023-01-08T02:55:45;100457.67;;;1.58;100.00
19789;BME280;10054;59.332;18.244;2023-01-08T02:58:15;100455.48;;;1.59;100.00
19789;BME280;10054;59.332;18.244;2023-01-08T03:00:45;100446.78;;;1.60;100.00
19789;BME280;10054;59.332;18.244;2023-01-08T03:03:17;100444.59;;;1.61;100.00
19789;BME280;10054;59.332;18.244;2023-01-08T03:05:49;100437.19;;;1.62;100.00
19789;BME280;10054;59.332;18.244;2023-01-08T03:08:18;100428.05;;;1.64;100.00
19789;BME280;10054;59.332;18.244;2023-01-08T03:10:50;100424.55;;;1.65;100.00
19789;BME280;10054;59.332;18.244;2023-01-08T03:13:24;100431.50;;;1.64;100.00
19789;BME280;10054;59.332;18.244;2023-01-08T03:15:56;100431.01;;;1.67;100.00
19789;BME280;10054;59.332;18.244;2023-01-08T03:18:30;100422.76;;;1.67;100.00
19789;BME280;10054;59.332;18.244;2023-01-08T03:21:01;100428.77;;;1.69;100.00
19789;BME280;10054;59.332;18.244;2023-01-08T03:23:33;100422.22;;;1.71;100.00
19789;BME280;10054;59.332;18.244;2023-01-08T03:26:05;100425.98;;;1.75;100.00
19789;BME280;10054;59.332;18.244;2023-01-08T03:28:37;100417.82;;;1.87;100.00
19789;BME280;10054;59.332;18.244;2023-01-08T03:31:06;100413.23;;;1.95;100.00
19789;BME280;10054;59.332;18.244;2023-01-08T03:33:36;100417.23;;;1.92;100.00
19789;BME280;10054;59.332;18.244;2023-01-08T03:36:06;100409.52;;;1.89;100.00
19789;BME280;10054;59.332;18.244;2023-01-08T03:38:44;100406.21;;;1.84;100.00
19789;BME280;10054;59.332;18.244;2023-01-08T03:41:17;100404.20;;;1.79;100.00
19789;BME280;10054;59.332;18.244;2023-01-08T03:43:45;100393.44;;;1.77;100.00
19789;BME280;10054;59.332;18.244;2023-01-08T03:46:17;100390.92;;;1.74;100.00
19789;BME280;10054;59.332;18.244;2023-01-08T03:48:45;100389.22;;;1.73;100.00
19789;BME280;10054;59.332;18.244;2023-01-08T03:51:15;100395.68;;;1.74;100.00
19789;BME280;10054;59.332;18.244;2023-01-08T03:53:45;100384.83;;;1.75;100.00
19789;BME280;10054;59.332;18.244;2023-01-08T03:56:15;100389.53;;;1.77;100.00
19789;BME280;10054;59.332;18.244;2023-01-08T03:58:44;100381.23;;;1.79;100.00
19789;BME280;10054;59.332;18.244;2023-01-08T04:01:12;100381.59;;;1.81;100.00
19789;BME280;10054;59.332;18.244;2023-01-08T04:03:41;100373.74;;;1.83;100.00
19789;BME280;10054;59.332;18.244;2023-01-08T04:06:10;100366.34;;;1.84;100.00
19789;BME280;10054;59.332;18.244;2023-01-08T04:08:39;100376.25;;;1.86;100.00
19789;BME280;10054;59.332;18.244;2023-01-08T04:11:08;100369.20;;;1.89;100.00
19789;BME280;10054;59.332;18.244;2023-01-08T04:13:37;100365.75;;;1.89;100.00
19789;BME280;10054;59.332;18.244;2023-01-08T04:16:06;100367.01;;;1.90;100.00
19789;BME280;10054;59.332;18.244;2023-01-08T04:18:35;100367.72;;;1.95;100.00
19789;BME280;10054;59.332;18.244;2023-01-08T04:21:04;100364.07;;;2.01;100.00
19789;BME280;10054;59.332;18.244;2023-01-08T04:23:33;100362.43;;;2.12;100.00
19789;BME280;10054;59.332;18.244;2023-01-08T04:26:06;100366.14;;;2.18;100.00
19789;BME280;10054;59.332;18.244;2023-01-08T04:28:35;100357.83;;;2.20;100.00
19789;BME280;10054;59.332;18.244;2023-01-08T04:31:08;100362.64;;;2.19;100.00
19789;BME280;10054;59.332;18.244;2023-01-08T04:33:37;100358.48;;;2.13;100.00
19789;BME280;10054;59.332;18.244;2023-01-08T04:36:06;100360.73;;;2.11;100.00
19789;BME280;10054;59.332;18.244;2023-01-08T04:38:35;100358.33;;;2.05;100.00
19789;BME280;10054;59.332;18.244;2023-01-08T04:41:04;100360.52;;;2.04;100.00
19789;BME280;10054;59.332;18.244;2023-01-08T04:43:33;100356.17;;;2.04;100.00
19789;BME280;10054;59.332;18.244;2023-01-08T04:46:04;100354.92;;;2.03;100.00
19789;BME280;10054;59.332;18.244;2023-01-08T04:48:36;100351.42;;;2.04;100.00
19789;BME280;10054;59.332;18.244;2023-01-08T04:51:05;100347.52;;;2.04;100.00
19789;BME280;10054;59.332;18.244;2023-01-08T04:53:36;100346.62;;;2.05;100.00
19789;BME280;10054;59.332;18.244;2023-01-08T04:56:08;100350.87;;;2.07;100.00
19789;BME280;10054;59.332;18.244;2023-01-08T04:58:38;100342.56;;;2.09;100.00
19789;BME280;10054;59.332;18.244;2023-01-08T05:01:12;100330.81;;;2.11;100.00
19789;BME280;10054;59.332;18.244;2023-01-08T05:03:42;100328.61;;;2.12;100.00
19789;BME280;10054;59.332;18.244;2023-01-08T05:06:11;100319.85;;;2.14;100.00
19789;BME280;10054;59.332;18.244;2023-01-08T05:08:40;100330.20;;;2.16;100.00
19789;BME280;10054;59.332;18.244;2023-01-08T05:11:08;100324.95;;;2.17;100.00
19789;BME280;10054;59.332;18.244;2023-01-08T05:13:37;100326.70;;;2.17;100.00
19789;BME280;10054;59.332;18.244;2023-01-08T05:16:07;100317.50;;;2.20;100.00
19789;BME280;10054;59.332;18.244;2023-01-08T05:18:35;100309.85;;;2.27;100.00
19789;BME280;10054;59.332;18.244;2023-01-08T05:21:04;100303.84;;;2.38;100.00
19789;BME280;10054;59.332;18.244;2023-01-08T05:23:33;100306.39;;;2.40;100.00
19789;BME280;10054;59.332;18.244;2023-01-08T05:26:04;100300.03;;;2.35;100.00
19789;BME280;10054;59.332;18.244;2023-01-08T05:28:34;100298.44;;;2.31;100.00
19789;BME280;10054;59.332;18.244;2023-01-08T05:31:03;100300.75;;;2.27;100.00
19789;BME280;10054;59.332;18.244;2023-01-08T05:33:31;100295.73;;;2.22;100.00
19789;BME280;10054;59.332;18.244;2023-01-08T05:36:02;100281.97;;;2.19;100.00
19789;BME280;10054;59.332;18.244;2023-01-08T05:38:30;100276.81;;;2.17;100.00
19789;BME280;10054;59.332;18.244;2023-01-08T05:41:00;100282.42;;;2.18;100.00
19789;BME280;10054;59.332;18.244;2023-01-08T05:43:28;100276.36;;;2.18;100.00
19789;BME280;10054;59.332;18.244;2023-01-08T05:46:02;100276.31;;;2.19;100.00
19789;BME280;10054;59.332;18.244;2023-01-08T05:48:33;100268.91;;;2.20;100.00
19789;BME280;10054;59.332;18.244;2023-01-08T05:51:03;100272.36;;;2.21;100.00
19789;BME280;10054;59.332;18.244;2023-01-08T05:53:32;100267.47;;;2.23;100.00
19789;BME280;10054;59.332;18.244;2023-01-08T05:56:05;100270.47;;;2.24;100.00
19789;BME280;10054;59.332;18.244;2023-01-08T05:58:34;100273.47;;;2.25;100.00
19789;BME280;10054;59.332;18.244;2023-01-08T06:01:05;100276.02;;;2.27;100.00
19789;BME280;10054;59.332;18.244;2023-01-08T06:03:34;100275.56;;;2.27;100.00
19789;BME280;10054;59.332;18.244;2023-01-08T06:06:05;100263.86;;;2.27;100.00
19789;BME280;10054;59.332;18.244;2023-01-08T06:08:34;100267.25;;;2.29;100.00
19789;BME280;10054;59.332;18.244;2023-01-08T06:11:06;100258.09;;;2.31;100.00
19789;BME280;10054;59.332;18.244;2023-01-08T06:13:35;100260.25;;;2.31;100.00
19789;BME280;10054;59.332;18.244;2023-01-08T06:16:06;100258.05;;;2.33;100.00
19789;BME280;10054;59.332;18.244;2023-01-08T06:18:34;100254.59;;;2.32;100.00
19789;BME280;10054;59.332;18.244;2023-01-08T06:21:04;100255.89;;;2.32;100.00
19789;BME280;10054;59.332;18.244;2023-01-08T06:23:33;100251.14;;;2.31;100.00
19789;BME280;10054;59.332;18.244;2023-01-08T06:26:02;100257.59;;;2.33;100.00
19789;BME280;10054;59.332;18.244;2023-01-08T06:28:33;100256.23;;;2.35;100.00
19789;BME280;10054;59.332;18.244;2023-01-08T06:31:02;100252.28;;;2.36;100.00
19789;BME280;10054;59.332;18.244;2023-01-08T06:33:31;100243.52;;;2.39;100.00
19789;BME280;10054;59.332;18.244;2023-01-08T06:36:01;100246.06;;;2.40;100.00
19789;BME280;10054;59.332;18.244;2023-01-08T06:38:32;100246.86;;;2.42;100.00
19789;BME280;10054;59.332;18.244;2023-01-08T06:41:06;100240.24;;;2.45;100.00
19789;BME280;10054;59.332;18.244;2023-01-08T06:43:35;100250.73;;;2.55;100.00
19789;BME280;10054;59.332;18.244;2023-01-08T06:46:05;100244.22;;;2.55;100.00
19789;BME280;10054;59.332;18.244;2023-01-08T06:48:35;100232.95;;;2.55;100.00
19789;BME280;10054;59.332;18.244;2023-01-08T06:51:04;100228.37;;;2.50;100.00
19789;BME280;10054;59.332;18.244;2023-01-08T06:53:33;100218.86;;;2.49;100.00
19789;BME280;10054;59.332;18.244;2023-01-08T06:56:03;100215.86;;;2.48;100.00
19789;BME280;10054;59.332;18.244;2023-01-08T06:58:34;100216.31;;;2.47;100.00
19789;BME280;10054;59.332;18.244;2023-01-08T07:01:03;100223.27;;;2.47;100.00
19789;BME280;10054;59.332;18.244;2023-01-08T07:03:31;100208.05;;;2.48;100.00
19789;BME280;10054;59.332;18.244;2023-01-08T07:06:02;100210.99;;;2.50;100.00
19789;BME280;10054;59.332;18.244;2023-01-08T07:08:30;100209.23;;;2.51;100.00
19789;BME280;10054;59.332;18.244;2023-01-08T07:11:06;100213.09;;;2.52;100.00
19789;BME280;10054;59.332;18.244;2023-01-08T07:13:35;100205.28;;;2.52;100.00
19789;BME280;10054;59.332;18.244;2023-01-08T07:16:08;100202.56;;;2.55;100.00
19789;BME280;10054;59.332;18.244;2023-01-08T07:18:37;100206.92;;;2.55;100.00
19789;BME280;10054;59.332;18.244;2023-01-08T07:21:07;100198.20;;;2.56;100.00
19789;BME280;10054;59.332;18.244;2023-01-08T07:23:36;100205.91;;;2.59;100.00
19789;BME280;10054;59.332;18.244;2023-01-08T07:26:06;100202.34;;;2.61;100.00
19789;BME280;10054;59.332;18.244;2023-01-08T07:28:34;100199.28;;;2.62;100.00
19789;BME280;10054;59.332;18.244;2023-01-08T07:31:05;100198.83;;;2.62;100.00
19789;BME280;10054;59.332;18.244;2023-01-08T07:33:34;100201.44;;;2.62;100.00
19789;BME280;10054;59.332;18.244;2023-01-08T07:36:05;100189.72;;;2.62;100.00
19789;BME280;10054;59.332;18.244;2023-01-08T07:38:33;100184.05;;;2.63;100.00
19789;BME280;10054;59.332;18.244;2023-01-08T07:41:02;100185.75;;;2.64;100.00
19789;BME280;10054;59.332;18.244;2023-01-08T07:43:31;100185.70;;;2.66;100.00
19789;BME280;10054;59.332;18.244;2023-01-08T07:46:02;100180.43;;;2.67;100.00
19789;BME280;10054;59.332;18.244;2023-01-08T07:48:31;100186.89;;;2.69;100.00
19789;BME280;10054;59.332;18.244;2023-01-08T07:51:07;100176.86;;;2.70;100.00
19789;BME280;10054;59.332;18.244;2023-01-08T07:53:37;100174.14;;;2.73;100.00
19789;BME280;10054;59.332;18.244;2023-01-08T07:56:07;100170.13;;;2.76;100.00
19789;BME280;10054;59.332;18.244;2023-01-08T07:58:37;100175.73;;;2.77;100.00
19789;BME280;10054;59.332;18.244;2023-01-08T08:01:08;100173.92;;;2.79;100.00
19789;BME280;10054;59.332;18.244;2023-01-08T08:03:38;100176.02;;;2.81;100.00
19789;BME280;10054;59.332;18.244;2023-01-08T08:06:07;100180.38;;;2.80;100.00
19789;BME280;10054;59.332;18.244;2023-01-08T08:08:36;100175.56;;;2.81;100.00
19789;BME280;10054;59.332;18.244;2023-01-08T08:11:05;100181.95;;;2.84;100.00
19789;BME280;10054;59.332;18.244;2023-01-08T08:13:33;100183.20;;;2.86;100.00
19789;BME280;10054;59.332;18.244;2023-01-08T08:16:03;100185.35;;;2.86;100.00
19789;BME280;10054;59.332;18.244;2023-01-08T08:18:32;100195.26;;;2.88;100.00
19789;BME280;10054;59.332;18.244;2023-01-08T08:21:01;100193.91;;;2.90;100.00
19789;BME280;10054;59.332;18.244;2023-01-08T08:23:30;100189.03;;;2.92;100.00
19789;BME280;10054;59.332;18.244;2023-01-08T08:26:00;100188.06;;;2.95;100.00
19789;BME280;10054;59.332;18.244;2023-01-08T08:28:28;100168.92;;;2.96;100.00
19789;BME280;10054;59.332;18.244;2023-01-08T08:30:57;100179.58;;;3.00;100.00
19789;BME280;10054;59.332;18.244;2023-01-08T08:33:26;100175.16;;;3.02;100.00
19789;BME280;10054;59.332;18.244;2023-01-08T08:35:55;100176.80;;;3.05;100.00
19789;BME280;10054;59.332;18.244;2023-01-08T08:38:23;100179.80;;;3.06;100.00
19789;BME280;10054;59.332;18.244;2023-01-08T08:40:52;100178.99;;;3.15;100.00
19789;BME280;10054;59.332;18.244;2023-01-08T08:43:21;100172.51;;;3.25;100.00
19789;BME280;10054;59.332;18.244;2023-01-08T08:45:50;100173.81;;;3.25;100.00
19789;BME280;10054;59.332;18.244;2023-01-08T08:48:19;100172.11;;;3.24;100.00
19789;BME280;10054;59.332;18.244;2023-01-08T08:50:48;100166.63;;;3.20;100.00
19789;BME280;10054;59.332;18.244;2023-01-08T08:53:17;100168.05;;;3.17;100.00
19789;BME280;10054;59.332;18.244;2023-01-08T08:55:45;100158.14;;;3.15;100.00
19789;BME280;10054;59.332;18.244;2023-01-08T08:58:14;100153.84;;;3.14;100.00
19789;BME280;10054;59.332;18.244;2023-01-08T09:00:43;100153.27;;;3.18;100.00
19789;BME280;10054;59.332;18.244;2023-01-08T09:03:15;100145.90;;;3.17;100.00
19789;BME280;10054;59.332;18.244;2023-01-08T09:05:44;100145.38;;;3.19;100.00
19789;BME280;10054;59.332;18.244;2023-01-08T09:08:13;100145.72;;;3.22;100.00
19789;BME280;10054;59.332;18.244;2023-01-08T09:10:42;100151.32;;;3.23;100.00
19789;BME280;10054;59.332;18.244;2023-01-08T09:13:11;100156.53;;;3.23;100.00
19789;BME280;10054;59.332;18.244;2023-01-08T09:15:40;100152.56;;;3.24;100.00
19789;BME280;10054;59.332;18.244;2023-01-08T09:18:08;100156.35;;;3.27;100.00
19789;BME280;10054;59.332;18.244;2023-01-08T09:20:38;100161.95;;;3.28;100.00
19789;BME280;10054;59.332;18.244;2023-01-08T09:23:08;100155.26;;;3.33;100.00
19789;BME280;10054;59.332;18.244;2023-01-08T09:25:37;100164.84;;;3.33;100.00
19789;BME280;10054;59.332;18.244;2023-01-08T09:28:07;100146.47;;;3.36;100.00
19789;BME280;10054;59.332;18.244;2023-01-08T09:30:39;100154.28;;;3.36;100.00
19789;BME280;10054;59.332;18.244;2023-01-08T09:33:09;100157.68;;;3.38;100.00
19789;BME280;10054;59.332;18.244;2023-01-08T09:35:37;100158.47;;;3.40;100.00
19789;BME280;10054;59.332;18.244;2023-01-08T09:38:06;100157.62;;;3.39;100.00
19789;BME280;10054;59.332;18.244;2023-01-08T09:40:38;100148.89;;;3.40;100.00
19789;BME280;10054;59.332;18.244;2023-01-08T09:43:11;100145.77;;;3.42;100.00
19789;BME280;10054;59.332;18.244;2023-01-08T09:45:38;100149.55;;;3.45;100.00
19789;BME280;10054;59.332;18.244;2023-01-08T09:48:12;100139.58;;;3.45;100.00
19789;BME280;10054;59.332;18.244;2023-01-08T09:50:41;100133.05;;;3.45;100.00
19789;BME280;10054;59.332;18.244;2023-01-08T09:53:12;100132.99;;;3.46;100.00
19789;BME280;10054;59.332;18.244;2023-01-08T09:55:42;100134.23;;;3.48;100.00
19789;BME280;10054;59.332;18.244;2023-01-08T09:58:33;100123.28;;;3.50;100.00
19789;BME280;10054;59.332;18.244;2023-01-08T10:00:54;100116.77;;;3.50;100.00
19789;BME280;10054;59.332;18.244;2023-01-08T10:03:24;100117.34;;;3.46;100.00
19789;BME280;10054;59.332;18.244;2023-01-08T10:05:55;100109.52;;;3.46;100.00
19789;BME280;10054;59.332;18.244;2023-01-08T10:08:23;100116.50;;;3.46;100.00
19789;BME280;10054;59.332;18.244;2023-01-08T10:10:52;100115.20;;;3.46;100.00
19789;BME280;10054;59.332;18.244;2023-01-08T10:13:21;100111.34;;;3.44;100.00
19789;BME280;10054;59.332;18.244;2023-01-08T10:15:51;100106.92;;;3.46;100.00
19789;BME280;10054;59.332;18.244;2023-01-08T10:18:22;100103.00;;;3.46;100.00
19789;BME280;10054;59.332;18.244;2023-01-08T10:20:53;100104.25;;;3.48;100.00
19789;BME280;10054;59.332;18.244;2023-01-08T10:23:21;100100.40;;;3.46;100.00
19789;BME280;10054;59.332;18.244;2023-01-08T10:25:54;100101.77;;;3.45;100.00
19789;BME280;10054;59.332;18.244;2023-01-08T10:28:33;100097.01;;;3.44;100.00
19789;BME280;10054;59.332;18.244;2023-01-08T10:31:07;100096.94;;;3.46;100.00
19789;BME280;10054;59.332;18.244;2023-01-08T10:33:41;100089.13;;;3.46;100.00
19789;BME280;10054;59.332;18.244;2023-01-08T10:36:12;100090.42;;;3.46;100.00
19789;BME280;10054;59.332;18.244;2023-01-08T10:38:55;100094.73;;;3.47;100.00
19789;BME280;10054;59.332;18.244;2023-01-08T10:41:26;100088.21;;;3.47;100.00
19789;BME280;10054;59.332;18.244;2023-01-08T10:44:03;100070.34;;;3.48;100.00
19789;BME280;10054;59.332;18.244;2023-01-08T10:46:43;100079.87;;;3.49;100.00
19789;BME280;10054;59.332;18.244;2023-01-08T10:49:26;100074.98;;;3.51;100.00
19789;BME280;10054;59.332;18.244;2023-01-08T10:51:51;100071.59;;;3.49;100.00
19789;BME280;10054;59.332;18.244;2023-01-08T10:54:32;100078.56;;;3.49;100.00
19789;BME280;10054;59.332;18.244;2023-01-08T10:57:02;100072.56;;;3.47;100.00
19789;BME280;10054;59.332;18.244;2023-01-08T10:59:30;100063.83;;;3.48;100.00
19789;BME280;10054;59.332;18.244;2023-01-08T11:01:59;100070.28;;;3.49;100.00
19789;BME280;10054;59.332;18.244;2023-01-08T11:04:33;100066.83;;;3.49;100.00
19789;BME280;10054;59.332;18.244;2023-01-08T11:07:06;100052.42;;;3.50;100.00
19789;BME280;10054;59.332;18.244;2023-01-08T11:09:44;100045.91;;;3.50;100.00
19789;BME280;10054;59.332;18.244;2023-01-08T11:12:33;100044.14;;;3.51;100.00
19789;BME280;10054;59.332;18.244;2023-01-08T11:15:05;100038.41;;;3.53;100.00
19789;BME280;10054;59.332;18.244;2023-01-08T11:17:34;100038.80;;;3.54;100.00
19789;BME280;10054;59.332;18.244;2023-01-08T11:20:08;100043.55;;;3.54;100.00
19789;BME280;10054;59.332;18.244;2023-01-08T11:22:37;100042.19;;;3.56;100.00
19789;BME280;10054;59.332;18.244;2023-01-08T11:25:07;100043.03;;;3.56;100.00
19789;BME280;10054;59.332;18.244;2023-01-08T11:27:40;100029.15;;;3.56;100.00
19789;BME280;10054;59.332;18.244;2023-01-08T11:30:20;100037.81;;;3.56;100.00
19789;BME280;10054;59.332;18.244;2023-01-08T11:33:11;100041.34;;;3.55;100.00
19789;BME280;10054;59.332;18.244;2023-01-08T11:35:52;100023.08;;;3.55;100.00
19789;BME280;10054;59.332;18.244;2023-01-08T11:38:20;100038.27;;;3.56;100.00
19789;BME280;10054;59.332;18.244;2023-01-08T11:40:50;100031.75;;;3.56;100.00
19789;BME280;10054;59.332;18.244;2023-01-08T11:49:39;100025.49;;;3.60;100.00
19789;BME280;10054;59.332;18.244;2023-01-08T11:55:12;100035.21;;;3.56;100.00
19789;BME280;10054;59.332;18.244;2023-01-08T11:57:55;100030.97;;;3.54;100.00
19789;BME280;10054;59.332;18.244;2023-01-08T12:06:26;100025.50;;;3.50;100.00
19789;BME280;10054;59.332;18.244;2023-01-08T12:15:03;100013.56;;;3.54;100.00
19789;BME280;10054;59.332;18.244;2023-01-08T12:20:35;100001.23;;;3.68;100.00
19789;BME280;10054;59.332;18.244;2023-01-08T12:26:23;99996.48;;;3.57;100.00
19789;BME280;10054;59.332;18.244;2023-01-08T12:29:21;99992.05;;;3.59;100.00
19789;BME280;10054;59.332;18.244;2023-01-08T12:31:51;99982.07;;;3.59;100.00
19789;BME280;10054;59.332;18.244;2023-01-08T12:34:32;99985.66;;;3.56;100.00
19789;BME280;10054;59.332;18.244;2023-01-08T12:37:05;99979.07;;;3.58;100.00
19789;BME280;10054;59.332;18.244;2023-01-08T12:39:32;99988.98;;;3.60;100.00
19789;BME280;10054;59.332;18.244;2023-01-08T12:42:13;99986.50;;;3.57;100.00
19789;BME280;10054;59.332;18.244;2023-01-08T12:44:43;99980.05;;;3.55;100.00
19789;BME280;10054;59.332;18.244;2023-01-08T12:47:15;99984.36;;;3.56;100.00
19789;BME280;10054;59.332;18.244;2023-01-08T12:49:53;99973.08;;;3.56;100.00
19789;BME280;10054;59.332;18.244;2023-01-08T12:52:26;99975.75;;;3.54;100.00
19789;BME280;10054;59.332;18.244;2023-01-08T12:55:08;99972.75;;;3.53;100.00
19789;BME280;10054;59.332;18.244;2023-01-08T12:57:43;99973.99;;;3.55;100.00
19789;BME280;10054;59.332;18.244;2023-01-08T13:00:29;99967.86;;;3.56;100.00
19789;BME280;10054;59.332;18.244;2023-01-08T13:03:03;99967.08;;;3.54;100.00
19789;BME280;10054;59.332;18.244;2023-01-08T13:05:34;99957.89;;;3.55;100.00
19789;BME280;10054;59.332;18.244;2023-01-08T13:10:55;99959.91;;;3.59;100.00
19789;BME280;10054;59.332;18.244;2023-01-08T13:13:35;99953.13;;;3.55;100.00
19789;BME280;10054;59.332;18.244;2023-01-08T13:18:57;99950.31;;;3.59;100.00
19789;BME280;10054;59.332;18.244;2023-01-08T13:21:35;99940.09;;;3.55;100.00
19789;BME280;10054;59.332;18.244;2023-01-08T13:26:36;99937.28;;;3.59;100.00
19789;BME280;10054;59.332;18.244;2023-01-08T13:29:26;99939.43;;;3.60;100.00
19789;BME280;10054;59.332;18.244;2023-01-08T13:31:55;99931.74;;;3.57;100.00
19789;BME280;10054;59.332;18.244;2023-01-08T13:34:36;99933.16;;;3.64;100.00
19789;BME280;10054;59.332;18.244;2023-01-08T13:37:06;99933.16;;;3.64;100.00
19789;BME280;10054;59.332;18.244;2023-01-08T13:39:37;99931.99;;;3.61;100.00
19789;BME280;10054;59.332;18.244;2023-01-08T13:42:19;99925.22;;;3.57;100.00
19789;BME280;10054;59.332;18.244;2023-01-08T13:44:49;99928.33;;;3.65;100.00
19789;BME280;10054;59.332;18.244;2023-01-08T13:47:32;99916.73;;;3.62;100.00